Airfield :
LOGIN :

Register | Disclaimer

   EN    FR    IT 

 










Legend :    VFR   Marginal VFR   IFR   Intensive IFR   Very Intensive IFR
Visi :
Ceiling :
>= 8 km
>= 3000ft
5 to 8 km
1000 to 3000 ft
1500m to 5 km
500 to 1000 ft
800 to 1500m
200 to 500 ft
< 800m
< 200 ft
Symbols :   Thunderstorms  Fog  Heavy snow  Heavy precipitations  Wind > 20 kt
SIGMETs :     Misc.  Thunderstorms  Icing  Turbulence  Mountain Waves  Volcanic Ashes







- Airport Elevation : 184 ft
- IATA code : BRU


EBBR - Bruxelles

CURRENT METAR :
  • 160750Z 20005KT 4000 BR BKN004 02/02 Q1009 TEMPO 2000 BR

EXPIRED METARs :
  • 160720Z 20006KT 4000 BR BKN004 02/02 Q1009 TEMPO 2000 BR
  • 160650Z 21007KT 4500 BR BKN004 02/02 Q1009 TEMPO 2000 BR
  • 160620Z 21005KT 4500 BR BKN004 02/01 Q1009 TEMPO 2000 BR
  • 160550Z 20007KT 5000 BR BKN003 01/01 Q1009 TEMPO 2000 BR
  • 160520Z 20006KT 7000 BKN004 01/00 Q1009 NOSIG

TAF COR TAF EBBR
Valid from the 16 at 06:00 until the 17 at 12:00 UTC


160515Z 1606/1712 22008KT 8000 BKN007
PROB30
TEMPO 1606/1609 2000 BR BKN003
PROB30
TEMPO 1608/1610 4000 SHRA
BECMG 1609/1611 SCT008 BKN012
TEMPO 1611/1616 SCT010 BKN030
BECMG 1616/1618 BKN007
PROB30
TEMPO 1619/1624 BKN004
PROB30
TEMPO 1703/1707 4500 -RA SHRA
BECMG 1707/1709 SCT015 SCT030
No reported NOTAMs for that airfield.



MET'MAP, your aeronautical weather chart ! - Copyright ORBIFLY December 2007 - Disclaimer

ORBIFLY MET'MAP TEAM :

Programming & Development : Alexandra Zaïnal
Concept & Development : Baudouin d'Aumeries
Co-Development & Prog : Marc-Olivier Méhu
Technical & hardware support : Manuel Goepfert

Contact : metmap@orbifly.com




SOURCES & CREDITS :

   NOAA